Time;durP1;ratioP1;P1;durP2;ratioP2;P2;SDS_P1;SDS_P2;PMS_P1;PMS_P2;Temp;Humidity;BMP_temperature;BMP_pressure;BME280_temperature;BME280_humidity;BME280_pressure;Samples;Min_cycle;Max_cycle;Signal;HPM_P1;HPM_P2
2022/11/02 00:01:05;;;;;;;36.17;20.33;;;;;;;10.85;80.79;98930.31;5067258;28;20023;-76
2022/11/02 00:03:30;;;;;;;35.65;19.27;;;;;;;10.85;80.63;98937.69;5068737;28;20032;-76
2022/11/02 00:05:56;;;;;;;33.13;18.85;;;;;;;10.84;80.60;98928.66;5070628;28;20099;-76
2022/11/02 00:08:21;;;;;;;33.00;18.67;;;;;;;10.83;81.26;98938.00;5070829;28;20467;-75
2022/11/02 00:10:46;;;;;;;33.95;19.50;;;;;;;10.81;81.73;98936.63;5062194;28;20225;-76
2022/11/02 00:13:12;;;;;;;38.92;20.17;;;;;;;10.78;81.18;98932.53;5069048;28;20029;-76
2022/11/02 00:15:37;;;;;;;37.83;20.98;;;;;;;10.79;80.96;98938.88;5056027;28;20463;-76
2022/11/02 00:18:06;;;;;;;38.22;20.15;;;;;;;10.78;81.11;98937.22;5059105;28;20071;-75
2022/11/02 00:20:34;;;;;;;36.60;22.98;;;;;;;10.76;81.71;98934.75;5061690;28;20149;-76
2022/11/02 00:23:00;;;;;;;32.67;18.88;;;;;;;10.76;80.92;98939.44;5065024;28;20111;-76
2022/11/02 00:25:27;;;;;;;33.55;18.75;;;;;;;10.76;81.53;98945.72;5067096;28;20036;-76
2022/11/02 00:27:52;;;;;;;35.88;20.27;;;;;;;10.76;80.79;98944.94;5067170;28;20029;-76
2022/11/02 00:30:18;;;;;;;42.30;22.75;;;;;;;10.77;81.22;98952.06;5058289;28;20079;-76
2022/11/02 00:32:44;;;;;;;38.35;22.05;;;;;;;10.76;80.82;98939.44;5055139;28;20041;-76
2022/11/02 00:35:09;;;;;;;36.30;20.45;;;;;;;10.77;81.43;98935.59;5056696;28;20017;-76
2022/11/02 00:37:35;;;;;;;35.80;19.42;;;;;;;10.76;81.15;98937.50;5043066;28;20064;-77
2022/11/02 00:40:01;;;;;;;39.38;21.77;;;;;;;10.75;80.71;98930.38;5064582;28;20029;-76
2022/11/02 00:42:26;;;;;;;39.42;24.48;;;;;;;10.76;81.28;98933.97;5062643;28;20024;-76
2022/11/02 00:44:51;;;;;;;35.67;19.50;;;;;;;10.77;81.69;98935.59;5068507;28;20025;-76
2022/11/02 00:47:17;;;;;;;35.78;20.88;;;;;;;10.75;81.70;98935.88;5059778;28;20025;-76
2022/11/02 00:49:42;;;;;;;38.85;20.92;;;;;;;10.75;81.49;98941.34;5059299;28;20157;-76
2022/11/02 00:52:08;;;;;;;37.78;20.20;;;;;;;10.76;81.42;98933.97;5065912;28;20565;-75
2022/11/02 00:54:33;;;;;;;34.20;19.77;;;;;;;10.74;81.70;98933.41;5070114;28;20490;-75
2022/11/02 00:56:58;;;;;;;37.17;19.30;;;;;;;10.74;81.77;98938.91;5069805;28;20115;-76
2022/11/02 00:59:24;;;;;;;35.58;21.33;;;;;;;10.70;81.27;98944.13;5069172;28;20036;-77
2022/11/02 01:01:49;;;;;;;39.42;21.42;;;;;;;10.71;81.35;98951.25;5063544;28;20024;-77
2022/11/02 01:04:19;;;;;;;39.38;21.90;;;;;;;10.70;81.02;98955.09;5059773;28;20605;-75
2022/11/02 01:06:45;;;;;;;35.55;20.38;;;;;;;10.69;81.31;98948.81;5063601;28;20024;-75
2022/11/02 01:09:12;;;;;;;38.25;20.77;;;;;;;10.68;81.81;98949.91;5061113;28;20024;-75
2022/11/02 01:11:39;;;;;;;36.75;20.13;;;;;;;10.68;81.49;98957.31;5063715;28;20086;-75
2022/11/02 01:14:04;;;;;;;37.20;20.23;;;;;;;10.67;81.53;98956.50;5066188;28;20036;-75
2022/11/02 01:16:31;;;;;;;37.03;21.08;;;;;;;10.67;81.06;98952.94;5050967;28;20419;-75
2022/11/02 01:18:57;;;;;;;40.45;22.38;;;;;;;10.66;81.67;98948.53;5047990;28;20028;-75
2022/11/02 01:21:22;;;;;;;36.88;19.92;;;;;;;10.64;81.78;98950.75;5068220;28;20092;-75
2022/11/02 01:23:48;;;;;;;36.42;20.40;;;;;;;10.63;81.41;98952.69;5060501;28;20364;-75
2022/11/02 01:26:13;;;;;;;36.80;20.65;;;;;;;10.62;81.78;98947.47;5063220;28;20543;-75
2022/11/02 01:28:39;;;;;;;36.05;19.67;;;;;;;10.61;81.83;98948.56;5048672;28;20470;-75
2022/11/02 01:31:06;;;;;;;36.45;20.35;;;;;;;10.58;81.80;98949.97;5067386;28;20036;-75
2022/11/02 01:33:32;;;;;;;35.38;20.00;;;;;;;10.56;81.68;98941.22;5061519;28;20044;-74
2022/11/02 01:35:58;;;;;;;34.30;18.92;;;;;;;10.55;81.77;98950.53;5064764;28;20378;-75
2022/11/02 01:38:24;;;;;;;38.78;19.58;;;;;;;10.54;81.98;98935.19;5067619;28;20070;-76
2022/11/02 01:40:49;;;;;;;34.95;19.85;;;;;;;10.51;81.33;98939.31;5062810;28;20033;-75
2022/11/02 01:43:25;;;;;;;39.22;19.77;;;;;;;10.50;81.88;98939.59;5064116;28;20437;-76
2022/11/02 01:46:11;;;;;;;40.38;20.08;;;;;;;10.48;82.37;98937.16;5066264;28;20052;-75
2022/11/02 01:48:40;;;;;;;35.65;20.48;;;;;;;10.47;82.00;98951.13;5059759;28;20053;-75
2022/11/02 01:51:10;;;;;;;35.97;20.05;;;;;;;10.44;81.35;98944.31;5043168;28;20063;-75
2022/11/02 01:53:40;;;;;;;33.88;20.30;;;;;;;10.43;82.07;98945.41;5064261;28;20086;-75
2022/11/02 01:56:05;;;;;;;;;;;;;;;10.42;81.44;98950.06;5067915;28;20055;-75
2022/11/02 01:58:33;;;;;;;37.33;19.77;;;;;;;10.42;82.07;98947.31;5064357;28;19959;-75
2022/11/02 02:00:59;;;;;;;34.85;18.75;;;;;;;10.39;82.14;98945.13;5066233;28;20029;-75
2022/11/02 02:03:26;;;;;;;34.50;19.02;;;;;;;10.38;82.08;98950.88;5058701;28;20031;-75
2022/11/02 02:06:21;;;;;;;46.17;24.70;;;;;;;10.36;81.68;98951.19;5058757;28;20498;-75
2022/11/02 02:08:50;;;;;;;36.72;20.67;;;;;;;10.35;81.82;98963.25;5043870;28;20108;-75
2022/11/02 02:11:28;;;;;;;36.13;20.17;;;;;;;10.35;81.92;98952.28;5046296;28;20024;-75
2022/11/02 02:14:01;;;;;;;37.55;21.67;;;;;;;10.34;82.19;98958.88;5067143;28;20039;-76
2022/11/02 02:16:48;;;;;;;35.95;19.88;;;;;;;10.34;82.37;98958.88;5066369;28;20776;-76
2022/11/02 02:19:28;;;;;;;39.72;20.60;;;;;;;10.35;82.16;98955.03;5056971;28;20091;-74
2022/11/02 02:22:12;;;;;;;37.42;19.85;;;;;;;10.34;81.20;98958.88;5058581;28;20052;-74
2022/11/02 02:24:40;;;;;;;36.13;20.30;;;;;;;10.35;81.66;98949.53;5057811;28;20024;-74
2022/11/02 02:27:14;;;;;;;39.25;21.65;;;;;;;10.35;81.95;98946.78;5044311;28;20493;-74
2022/11/02 02:30:02;;;;;;;42.08;21.35;;;;;;;10.34;81.93;98950.63;5065218;28;20486;-74
2022/11/02 02:32:44;;;;;;;42.28;21.52;;;;;;;10.31;81.80;98937.50;5068039;28;20477;-75
2022/11/02 02:35:45;;;;;;;40.30;20.63;;;;;;;10.28;82.26;98946.28;5050967;28;20056;-74
2022/11/02 02:38:24;;;;;;;39.88;22.15;;;;;;;10.26;82.24;98938.31;4999956;28;20567;-74
2022/11/02 02:40:59;;;;;;;42.08;22.52;;;;;;;10.25;81.63;98949.59;5060201;28;20025;-75
2022/11/02 02:43:39;;;;;;;40.90;22.85;;;;;;;10.25;81.93;98946.84;5061156;28;20102;-73
2022/11/02 02:46:18;;;;;;;43.30;22.83;;;;;;;10.26;82.95;98940.25;5047103;28;20433;-74
2022/11/02 02:48:46;;;;;;;39.67;21.58;;;;;;;10.26;82.07;98948.47;5064929;28;20585;-74
2022/11/02 02:51:18;;;;;;;41.83;21.73;;;;;;;10.25;82.34;98950.38;5058388;28;20100;-75
2022/11/02 02:53:48;;;;;;;41.38;20.52;;;;;;;10.25;82.15;98950.38;5056238;28;20027;-74
2022/11/02 02:56:16;;;;;;;40.20;21.25;;;;;;;10.24;82.65;98950.69;5057024;28;20505;-75
2022/11/02 02:58:52;;;;;;;40.70;21.33;;;;;;;10.21;82.75;98949.31;5060333;28;20036;-74
2022/11/02 03:01:18;;;;;;;38.17;20.90;;;;;;;10.19;82.27;98946.03;5064177;28;20024;-74
2022/11/02 03:03:44;;;;;;;40.55;22.05;;;;;;;10.20;82.55;98955.09;5073645;28;20072;-74
2022/11/02 03:06:17;;;;;;;40.85;22.13;;;;;;;10.20;82.50;98958.63;5073141;28;20025;-75
2022/11/02 03:08:49;;;;;;;42.72;22.83;;;;;;;10.23;82.92;98960.00;5059265;28;20078;-75
2022/11/02 03:11:18;;;;;;;44.60;22.05;;;;;;;10.25;82.62;98963.28;5041491;28;20404;-75
2022/11/02 03:14:05;;;;;;;46.67;23.35;;;;;;;10.26;83.16;98953.97;5069321;28;20024;-76
2022/11/02 03:16:52;;;;;;;50.83;24.27;;;;;;;10.26;83.06;98956.72;5091399;28;20032;-76
2022/11/02 03:19:24;;;;;;;48.50;23.88;;;;;;;10.28;83.04;98965.47;5082414;28;20024;-76
2022/11/02 03:21:59;;;;;;;49.42;25.33;;;;;;;10.31;83.74;98970.41;5072473;28;20033;-75
2022/11/02 03:24:26;;;;;;;49.15;25.38;;;;;;;10.34;83.11;98955.28;5055236;28;20020;-75
2022/11/02 03:27:12;;;;;;;49.85;25.88;;;;;;;10.33;83.26;98961.88;5070896;28;20037;-75
2022/11/02 03:30:14;;;;;;;48.28;24.95;;;;;;;10.34;84.01;98961.59;5085221;28;20037;-75
2022/11/02 03:32:49;;;;;;;50.97;25.83;;;;;;;10.37;83.30;98965.69;5063593;28;20055;-75
2022/11/02 03:35:21;;;;;;;52.10;25.55;;;;;;;10.38;83.47;98972.81;5083374;28;20127;-76
2022/11/02 03:38:06;;;;;;;46.25;25.88;;;;;;;10.38;83.42;98959.94;5076734;28;20107;-75
2022/11/02 03:40:38;;;;;;;49.25;25.13;;;;;;;10.42;83.91;98969.25;5072990;28;20078;-75
2022/11/02 03:43:05;;;;;;;53.80;26.95;;;;;;;10.43;83.74;98973.63;5076424;28;20101;-75
2022/11/02 03:45:37;;;;;;;51.00;26.38;;;;;;;10.45;83.28;98978.84;5070032;28;20043;-76
2022/11/02 03:48:07;;;;;;;54.10;25.90;;;;;;;10.49;83.32;98979.09;5072531;28;20036;-75
2022/11/02 03:50:35;;;;;;;56.53;27.40;;;;;;;10.53;83.98;98971.94;5070343;28;20040;-76
2022/11/02 03:53:08;;;;;;;53.45;26.50;;;;;;;10.55;83.89;98970.56;5069066;28;20482;-77
2022/11/02 03:55:39;;;;;;;58.28;27.83;;;;;;;10.57;83.65;98967.53;5071386;28;20025;-76
2022/11/02 03:58:04;;;;;;;54.03;26.77;;;;;;;10.56;83.68;98976.84;5072773;28;20032;-76
2022/11/02 04:00:33;;;;;;;51.63;27.75;;;;;;;10.59;83.36;98981.78;5077306;28;20490;-76
2022/11/02 04:03:02;;;;;;;61.38;31.08;;;;;;;10.61;83.78;98978.75;5070600;28;20033;-76
2022/11/02 04:05:33;;;;;;;57.72;29.70;;;;;;;10.63;83.64;98987.50;5073468;28;20544;-76
2022/11/02 04:16:13;;;;;;;57.55;28.60;;;;;;;10.69;83.95;98992.69;5077555;28;20043;-76
2022/11/02 04:25:14;;;;;;;59.72;27.92;;;;;;;10.75;83.25;98998.97;5010320;28;20050;-76
2022/11/02 04:27:13;;;;;;;58.05;28.20;;;;;;;10.78;82.92;98997.59;5054610;28;20398;-76
2022/11/02 04:29:39;;;;;;;52.38;26.23;;;;;;;10.76;82.86;98997.84;5070272;28;20040;-75
2022/11/02 04:32:04;;;;;;;56.60;28.52;;;;;;;10.74;83.60;99002.81;5072386;28;20486;-76
2022/11/02 04:34:29;;;;;;;55.83;26.60;;;;;;;10.72;83.35;99000.38;5071353;28;20063;-76
2022/11/02 04:36:55;;;;;;;55.40;26.38;;;;;;;10.69;83.53;98994.59;5082570;28;20417;-76
2022/11/02 04:39:20;;;;;;;51.20;25.33;;;;;;;10.68;83.43;99004.78;5092333;28;20031;-76
2022/11/02 04:41:45;;;;;;;49.65;24.88;;;;;;;10.67;82.88;98999.56;5067973;28;20074;-76
2022/11/02 04:44:15;;;;;;;46.20;23.33;;;;;;;10.63;83.07;99002.06;5068353;28;20029;-75
2022/11/02 04:46:41;;;;;;;;;;;;;;;10.63;83.49;98996.56;5071927;28;20079;-76
2022/11/02 04:49:08;;;;;;;43.60;22.27;;;;;;;10.63;83.60;98993.00;5071558;28;20354;-75
2022/11/02 04:51:34;;;;;;;44.95;23.55;;;;;;;10.60;82.83;98993.59;5067757;28;20483;-76
2022/11/02 04:53:59;;;;;;;45.97;23.25;;;;;;;10.57;83.85;98994.97;5070280;28;20528;-76
2022/11/02 04:56:26;;;;;;;44.58;23.15;;;;;;;10.55;83.54;98987.03;5070721;28;20028;-75
2022/11/02 04:58:54;;;;;;;42.80;22.50;;;;;;;10.55;83.07;98988.94;5069358;28;20043;-75
2022/11/02 05:01:22;;;;;;;46.03;23.08;;;;;;;10.56;83.28;98985.09;5064966;28;20384;-76
2022/11/02 05:03:48;;;;;;;42.72;22.33;;;;;;;10.56;83.52;98983.19;5069679;28;20489;-75
2022/11/02 05:06:15;;;;;;;43.50;23.33;;;;;;;10.57;83.50;98990.31;5059769;28;20555;-75
2022/11/02 05:08:40;;;;;;;43.42;22.35;;;;;;;10.58;82.66;98985.63;5086857;28;20406;-75
2022/11/02 05:11:06;;;;;;;43.38;22.55;;;;;;;10.63;83.34;98980.13;5070019;28;20032;-75
2022/11/02 05:13:31;;;;;;;43.83;22.52;;;;;;;10.70;82.85;98982.53;5069148;28;20073;-75
2022/11/02 05:15:58;;;;;;;52.25;25.40;;;;;;;10.77;83.12;98988.53;5062576;28;20490;-76
2022/11/02 05:18:25;;;;;;;45.00;23.20;;;;;;;10.83;82.86;98990.13;5068938;28;20059;-76
2022/11/02 05:20:56;;;;;;;51.60;24.52;;;;;;;10.90;83.17;98986.25;5054287;28;20101;-75
2022/11/02 05:23:22;;;;;;;45.13;23.35;;;;;;;10.92;83.13;98993.09;5054714;28;20036;-75
2022/11/02 05:25:58;;;;;;;47.35;23.65;;;;;;;10.92;83.15;98990.34;5053668;28;20033;-76
2022/11/02 05:28:25;;;;;;;48.17;25.50;;;;;;;10.90;82.89;98987.06;5051018;28;20039;-76
2022/11/02 05:30:51;;;;;;;51.78;25.05;;;;;;;10.86;82.78;98986.00;5062824;28;20028;-76
2022/11/02 05:33:17;;;;;;;50.35;25.23;;;;;;;10.84;82.38;98993.69;5070957;28;20036;-75
2022/11/02 05:35:43;;;;;;;55.38;25.38;;;;;;;10.83;82.87;99006.59;5084488;28;20043;-75
2022/11/02 05:38:08;;;;;;;52.90;25.08;;;;;;;10.81;82.24;99005.22;5074499;28;20060;-75
2022/11/02 05:40:36;;;;;;;53.95;25.90;;;;;;;10.79;82.70;99004.72;5073399;28;20035;-76
2022/11/02 05:43:03;;;;;;;51.75;25.42;;;;;;;10.81;82.41;99007.97;5082280;28;20024;-76
2022/11/02 05:45:29;;;;;;;52.55;26.83;;;;;;;10.83;83.01;99014.84;5068280;28;20532;-76
2022/11/02 05:47:55;;;;;;;54.15;24.48;;;;;;;10.84;82.65;99001.91;5068508;28;20032;-75
2022/11/02 05:50:21;;;;;;;52.25;25.30;;;;;;;10.84;82.56;99004.66;5069399;28;20128;-75
2022/11/02 05:52:46;;;;;;;54.50;26.05;;;;;;;10.82;82.18;99009.63;5082443;28;20032;-75
2022/11/02 05:55:12;;;;;;;56.92;25.95;;;;;;;10.81;82.20;99006.06;5079844;28;20036;-75
2022/11/02 05:57:38;;;;;;;54.22;24.98;;;;;;;10.79;82.03;99005.53;5070399;28;20025;-75
2022/11/02 06:00:05;;;;;;;52.47;25.38;;;;;;;10.76;82.26;99010.78;5067847;28;20099;-75
2022/11/02 06:02:32;;;;;;;48.20;23.33;;;;;;;10.76;82.34;99013.53;5089665;28;20036;-75
2022/11/02 06:04:58;;;;;;;47.17;23.70;;;;;;;10.73;82.29;99014.88;5074418;28;20523;-75
2022/11/02 06:07:23;;;;;;;51.33;24.48;;;;;;;10.72;82.19;99019.56;5071063;28;20025;-76
2022/11/02 06:09:48;;;;;;;46.00;23.83;;;;;;;10.72;82.18;99021.47;5065820;28;20028;-75
2022/11/02 06:12:14;;;;;;;45.25;23.08;;;;;;;10.70;82.51;99016.28;5070980;28;20074;-75
2022/11/02 06:14:39;;;;;;;49.45;24.40;;;;;;;10.69;82.48;99013.81;5064813;28;20048;-75
2022/11/02 06:17:04;;;;;;;50.88;23.95;;;;;;;10.67;82.61;99019.59;5069277;28;20394;-75
2022/11/02 06:19:30;;;;;;;44.78;21.52;;;;;;;10.68;82.38;99026.72;5072380;28;20078;-75
2022/11/02 06:21:55;;;;;;;44.90;22.02;;;;;;;10.68;82.89;99015.75;5067651;28;20041;-75
2022/11/02 06:24:20;;;;;;;40.85;21.35;;;;;;;10.70;83.35;99012.72;5069342;28;20043;-75
2022/11/02 06:26:46;;;;;;;44.92;23.20;;;;;;;10.71;82.54;99025.31;5070640;28;20020;-75
2022/11/02 06:29:11;;;;;;;41.72;23.10;;;;;;;10.74;82.51;99018.47;5080937;28;20024;-74
2022/11/02 06:31:37;;;;;;;41.38;22.30;;;;;;;10.78;83.13;99025.03;5081519;28;20032;-74
2022/11/02 06:34:02;;;;;;;42.10;21.95;;;;;;;10.80;82.63;99025.56;5059739;28;20057;-75
2022/11/02 06:36:28;;;;;;;42.38;22.85;;;;;;;10.82;82.61;99023.34;5054217;28;20062;-75
2022/11/02 06:38:53;;;;;;;38.47;21.35;;;;;;;10.88;83.19;99027.69;5060536;28;20046;-75
2022/11/02 06:41:19;;;;;;;46.45;22.80;;;;;;;10.91;82.80;99026.31;5063601;28;20055;-75
2022/11/02 06:43:44;;;;;;;40.95;21.85;;;;;;;10.93;82.70;99024.91;5068006;28;20107;-75
2022/11/02 06:46:09;;;;;;;40.67;22.17;;;;;;;10.96;82.87;99038.06;5070427;28;20028;-75
2022/11/02 06:48:35;;;;;;;39.63;22.65;;;;;;;11.00;82.82;99038.34;5077970;28;20486;-78
2022/11/02 06:51:01;;;;;;;40.20;22.10;;;;;;;11.00;82.49;99036.41;5094940;28;20063;-76
2022/11/02 06:53:30;;;;;;;40.47;22.13;;;;;;;11.01;82.84;99038.03;5063409;28;20087;-74
2022/11/02 06:55:56;;;;;;;;;;;;;;;11.04;82.65;99038.56;5078405;28;20028;-72
2022/11/02 06:58:23;;;;;;;41.28;22.23;;;;;;;11.04;82.65;99035.81;5086649;28;19912;-73
2022/11/02 07:00:49;;;;;;;48.78;25.05;;;;;;;11.00;82.73;99036.41;5092574;28;20036;-72
2022/11/02 07:03:15;;;;;;;42.78;23.25;;;;;;;11.00;82.42;99035.59;5075582;28;20720;-72
2022/11/02 07:05:40;;;;;;;40.85;22.33;;;;;;;11.02;82.55;99033.34;5075206;28;20028;-73
2022/11/02 07:08:06;;;;;;;39.60;21.58;;;;;;;11.03;82.75;99051.47;5075020;28;20036;-72
2022/11/02 07:10:34;;;;;;;36.30;20.80;;;;;;;11.07;82.28;99041.56;5056313;28;20037;-72
2022/11/02 07:12:59;;;;;;;38.42;21.63;;;;;;;11.13;82.25;99036.88;5071723;28;20103;-73
2022/11/02 07:15:25;;;;;;;37.70;21.55;;;;;;;11.20;82.74;99040.13;5072412;28;20115;-73
2022/11/02 07:17:51;;;;;;;40.22;22.10;;;;;;;11.26;82.71;99043.63;5074800;28;20329;-74
2022/11/02 07:20:17;;;;;;;41.67;22.73;;;;;;;11.33;82.48;99041.38;5066363;28;20017;-76
2022/11/02 07:22:54;;;;;;;40.65;22.30;;;;;;;11.35;82.45;99039.16;5084569;28;20032;-76
2022/11/02 07:25:20;;;;;;;42.58;23.60;;;;;;;11.40;82.66;99055.63;5077830;28;20456;-75
2022/11/02 07:27:46;;;;;;;38.97;22.73;;;;;;;11.44;82.63;99048.41;5074874;28;20130;-76
2022/11/02 07:30:11;;;;;;;39.95;21.25;;;;;;;11.48;82.32;99056.91;5078509;28;20127;-75
2022/11/02 07:32:44;;;;;;;37.33;21.23;;;;;;;11.48;82.67;99062.41;5074905;28;20563;-74
2022/11/02 07:35:11;;;;;;;36.10;19.67;;;;;;;11.50;82.25;99056.63;5075263;28;20024;-73
2022/11/02 07:37:37;;;;;;;37.10;20.85;;;;;;;11.53;82.44;99065.13;5075210;28;20519;-73
2022/11/02 07:40:04;;;;;;;34.20;19.80;;;;;;;11.57;82.47;99062.59;5066856;28;20020;-75
2022/11/02 07:42:30;;;;;;;34.90;19.55;;;;;;;11.54;82.18;99061.25;5073631;28;20090;-72
2022/11/02 07:44:55;;;;;;;34.28;19.42;;;;;;;11.53;82.66;99061.53;5074781;28;20498;-74
2022/11/02 07:47:21;;;;;;;35.05;19.38;;;;;;;11.55;82.18;99057.41;5067733;28;20540;-74
2022/11/02 07:49:46;;;;;;;39.30;20.70;;;;;;;11.59;82.11;99060.38;5069433;28;20858;-76
2022/11/02 07:52:11;;;;;;;37.60;21.25;;;;;;;11.62;82.34;99055.13;5074706;28;20136;-74
2022/11/02 07:54:37;;;;;;;34.15;19.20;;;;;;;11.62;81.89;99063.38;5051827;28;20035;-73
2022/11/02 07:57:02;;;;;;;35.38;20.40;;;;;;;11.66;82.37;99052.63;5074990;28;20024;-73
2022/11/02 07:59:28;;;;;;;36.92;20.90;;;;;;;11.69;82.37;99054.81;5070145;28;20038;-74
2022/11/02 08:01:53;;;;;;;38.50;20.30;;;;;;;11.73;82.21;99053.13;5077211;28;20031;-75
2022/11/02 08:04:18;;;;;;;41.40;22.63;;;;;;;11.80;82.64;99047.28;5069697;28;20060;-73
2022/11/02 08:06:44;;;;;;;40.40;21.85;;;;;;;11.90;82.17;99052.69;5070691;28;20544;-72
2022/11/02 08:09:09;;;;;;;36.25;19.52;;;;;;;11.95;82.14;99056.50;5045519;28;20045;-75
2022/11/02 08:11:34;;;;;;;36.97;20.48;;;;;;;11.96;82.18;99058.13;5069016;28;20034;-73
2022/11/02 08:14:01;;;;;;;33.08;18.77;;;;;;;11.97;81.75;99057.03;5066648;28;20056;-77
2022/11/02 08:16:27;;;;;;;37.30;19.45;;;;;;;11.95;81.81;99062.00;5064540;28;20040;-79
2022/11/02 08:18:52;;;;;;;40.47;20.75;;;;;;;11.94;81.83;99052.09;5077240;28;20077;-78
2022/11/02 08:21:18;;;;;;;36.92;20.15;;;;;;;11.96;82.35;99052.63;5048091;28;20028;-78
2022/11/02 08:23:43;;;;;;;40.03;20.70;;;;;;;11.96;81.65;99052.63;5065679;28;20032;-80
2022/11/02 08:26:09;;;;;;;34.35;19.52;;;;;;;11.97;81.97;99051.53;5069382;28;20028;-82
2022/11/02 08:28:35;;;;;;;34.92;19.38;;;;;;;11.95;81.90;99053.75;5045518;28;20453;-79
2022/11/02 08:31:01;;;;;;;52.83;27.45;;;;;;;11.94;81.50;99058.41;5068179;28;20108;-76
2022/11/02 08:33:26;;;;;;;33.45;18.13;;;;;;;11.95;81.64;99056.50;5073185;28;20148;-76
2022/11/02 08:35:52;;;;;;;37.78;19.27;;;;;;;11.88;81.73;99052.16;5065932;28;20041;-75
2022/11/02 08:38:21;;;;;;;34.90;18.55;;;;;;;11.87;81.79;99052.41;5063112;28;20035;-77
2022/11/02 08:40:47;;;;;;;33.55;17.88;;;;;;;11.85;81.41;99049.16;5071342;28;20021;-77
2022/11/02 08:43:13;;;;;;;37.92;18.27;;;;;;;11.83;81.38;99045.88;5075126;28;20073;-77
2022/11/02 08:45:40;;;;;;;34.17;18.92;;;;;;;11.81;81.40;99050.88;5090938;28;20482;-77
2022/11/02 08:48:06;;;;;;;35.80;18.33;;;;;;;11.77;81.49;99048.69;5083032;28;20132;-77
2022/11/02 08:50:33;;;;;;;33.72;17.90;;;;;;;11.77;81.35;99045.09;5071938;28;20656;-77
2022/11/02 08:52:58;;;;;;;33.10;18.15;;;;;;;11.78;81.31;99044.00;5091073;28;20044;-77
2022/11/02 08:55:24;;;;;;;33.05;17.63;;;;;;;11.81;81.76;99040.69;5064542;28;20109;-76
2022/11/02 08:57:51;;;;;;;35.42;18.42;;;;;;;11.83;81.42;99041.19;5061612;28;20025;-75
2022/11/02 09:00:18;;;;;;;34.65;18.08;;;;;;;11.86;81.72;99046.13;5067157;28;20033;-75
2022/11/02 09:03:10;;;;;;;31.88;17.52;;;;;;;11.92;81.66;99049.63;5073634;28;20033;-74
2022/11/02 09:05:41;;;;;;;34.58;18.23;;;;;;;11.96;81.75;99045.19;5068054;28;20067;-77
2022/11/02 09:08:10;;;;;;;34.42;18.00;;;;;;;11.99;81.44;99043.81;5075399;28;20020;-78
2022/11/02 09:10:36;;;;;;;38.17;19.73;;;;;;;12.03;81.59;99039.38;5067923;28;20040;-78
2022/11/02 09:13:05;;;;;;;33.40;18.60;;;;;;;12.10;81.15;99042.59;5069884;28;20032;-77
2022/11/02 09:15:34;;;;;;;35.97;18.98;;;;;;;12.18;81.37;99038.41;5052325;28;20028;-76
2022/11/02 09:18:00;;;;;;;33.47;17.67;;;;;;;12.24;81.54;99033.66;5073975;28;20027;-77
2022/11/02 09:20:25;;;;;;;30.17;17.10;;;;;;;12.30;81.29;99029.72;5073001;28;20381;-76
2022/11/02 09:22:51;;;;;;;33.60;16.95;;;;;;;12.37;81.23;99021.94;5071640;28;20029;-76
2022/11/02 09:25:16;;;;;;;30.60;17.05;;;;;;;12.45;80.99;99032.28;5070422;28;20494;-77
2022/11/02 09:27:42;;;;;;;33.45;17.23;;;;;;;12.53;80.60;99021.72;5075557;28;20099;-77
2022/11/02 09:30:09;;;;;;;30.08;17.20;;;;;;;12.62;80.62;99028.22;5080345;28;20024;-77
2022/11/02 09:32:35;;;;;;;36.58;16.23;;;;;;;12.69;80.58;99028.69;5086063;28;20036;-77
2022/11/02 09:35:02;;;;;;;26.48;14.63;;;;;;;12.78;79.96;99029.66;5090652;28;20054;-77
2022/11/02 09:37:28;;;;;;;27.08;14.23;;;;;;;12.87;80.48;99034.47;5075689;28;20028;-75
2022/11/02 09:39:54;;;;;;;25.42;14.20;;;;;;;12.97;80.45;99026.06;5074231;28;20111;-79
2022/11/02 09:42:27;;;;;;;28.67;14.88;;;;;;;13.04;79.91;99021.00;5069308;28;20028;-79
2022/11/02 09:45:00;;;;;;;24.25;13.07;;;;;;;13.13;80.06;99023.09;5066566;28;20058;-78
2022/11/02 09:47:27;;;;;;;23.98;13.52;;;;;;;13.20;79.90;99026.28;5079499;28;20031;-76
2022/11/02 09:49:55;;;;;;;21.58;13.45;;;;;;;13.27;79.73;99032.22;5089653;28;20070;-77
2022/11/02 09:52:32;;;;;;;23.00;13.00;;;;;;;13.36;79.68;99024.09;5089788;28;20126;-77
2022/11/02 09:55:01;;;;;;;24.08;13.57;;;;;;;13.44;79.30;99036.41;5072713;28;20052;-76
2022/11/02 09:57:32;;;;;;;22.58;13.45;;;;;;;13.51;78.85;99034.06;5070038;28;20083;-76
2022/11/02 09:59:58;;;;;;;24.92;13.88;;;;;;;13.55;78.66;99029.59;5069162;28;20094;-76
2022/11/02 10:02:32;;;;;;;27.58;13.93;;;;;;;13.59;78.49;99036.16;5068259;28;20115;-82
2022/11/02 10:05:17;;;;;;;29.25;15.40;;;;;;;13.63;78.04;99033.59;5072792;28;20029;-77
2022/11/02 10:08:04;;;;;;;26.77;13.88;;;;;;;13.64;77.96;99032.47;5074433;28;20024;-78
2022/11/02 10:10:48;;;;;;;22.75;13.05;;;;;;;13.68;77.65;99034.31;5073272;28;20116;-85
2022/11/02 10:13:14;;;;;;;25.17;13.27;;;;;;;13.73;77.30;99027.06;5088074;28;20048;-85
2022/11/02 10:15:51;;;;;;;25.25;13.80;;;;;;;13.75;77.48;99028.41;5068878;28;20071;-87
2022/11/02 10:18:25;;;;;;;25.25;13.20;;;;;;;13.75;77.05;99028.41;5080956;28;20085;-85
2022/11/02 10:20:54;;;;;;;32.42;15.57;;;;;;;13.80;77.04;99027.50;5068170;28;20115;-83
2022/11/02 10:23:31;;;;;;;;;;;;;;;13.83;76.79;99024.97;5051166;28;20024;-85
2022/11/02 10:25:58;;;;;;;25.38;14.30;;;;;;;13.86;75.83;99031.81;5070054;28;19916;-84
2022/11/02 10:28:29;;;;;;;23.55;12.88;;;;;;;13.88;76.00;99025.97;5066303;28;20016;-84
2022/11/02 10:30:54;;;;;;;29.73;12.98;;;;;;;13.90;76.49;99019.03;5069953;28;20039;-90
2022/11/02 10:33:25;;;;;;;25.00;13.02;;;;;;;13.95;76.63;99018.94;5062946;28;20036;-84
2022/11/02 10:36:21;;;;;;;20.25;12.23;;;;;;;14.01;76.32;99022.41;5061847;28;20032;-89
2022/11/02 10:39:11;;;;;;;22.90;12.65;;;;;;;14.07;75.12;99025.88;5059603;28;20028;-76
2022/11/02 10:41:37;;;;;;;21.75;12.50;;;;;;;14.10;76.06;99014.25;5069278;28;20046;-84
2022/11/02 10:44:19;;;;;;;19.27;11.07;;;;;;;14.17;75.80;99011.09;5071114;28;20111;-79
2022/11/02 10:47:13;;;;;;;18.95;11.15;;;;;;;14.23;75.40;99005.16;5064326;28;20080;-80
2022/11/02 10:49:44;;;;;;;16.52;10.77;;;;;;;14.31;75.33;99006.38;5053315;28;20044;-82
2022/11/02 10:52:14;;;;;;;17.83;10.13;;;;;;;14.37;75.54;99001.59;5080262;28;20400;-85
2022/11/02 10:54:40;;;;;;;14.57;9.20;;;;;;;14.43;75.08;98998.41;5071944;28;20032;-88
2022/11/02 10:57:13;;;;;;;14.70;9.63;;;;;;;14.51;75.02;99010.66;5080363;28;20540;-85
2022/11/02 10:59:39;;;;;;;18.10;9.82;;;;;;;14.58;74.71;98999.19;5087683;28;20032;-77
2022/11/02 11:02:14;;;;;;;19.33;10.93;;;;;;;14.64;75.06;98992.44;5088159;28;20130;-81
2022/11/02 11:04:40;;;;;;;14.65;8.70;;;;;;;14.72;74.83;98999.19;5062505;28;20479;-87
2022/11/02 11:07:14;;;;;;;15.55;8.70;;;;;;;14.78;75.12;98984.16;5078758;28;20173;-79
2022/11/02 11:09:51;;;;;;;16.10;9.75;;;;;;;14.84;73.33;99005.00;5070935;28;20640;-80
2022/11/02 11:12:25;;;;;;;14.32;8.57;;;;;;;14.90;73.73;98989.13;5065735;28;20370;-76
2022/11/02 11:14:54;;;;;;;17.75;6.85;;;;;;;14.94;73.95;99005.88;5082394;28;20059;-76
2022/11/02 11:17:25;;;;;;;9.25;5.70;;;;;;;14.97;73.17;98989.50;5086533;28;20024;-78
2022/11/02 11:19:53;;;;;;;13.15;5.82;;;;;;;15.03;72.90;98995.72;5047002;28;20064;-80
2022/11/02 11:22:31;;;;;;;7.68;5.80;;;;;;;15.09;72.57;98997.22;5082333;28;20058;-80
2022/11/02 11:25:12;;;;;;;11.10;6.78;;;;;;;15.15;72.95;98990.47;5063359;28;20036;-81
2022/11/02 11:27:48;;;;;;;11.75;6.78;;;;;;;15.22;73.06;98986.44;5066678;28;20491;-80
2022/11/02 11:30:32;;;;;;;9.80;6.63;;;;;;;15.28;72.69;98983.22;5063410;28;20024;-82
2022/11/02 11:32:59;;;;;;;11.65;6.80;;;;;;;15.35;72.54;98984.75;5061309;28;20282;-84
2022/11/02 11:35:30;;;;;;;15.02;7.00;;;;;;;15.42;71.77;98987.88;5066400;28;20025;-83
2022/11/02 11:38:01;;;;;;;10.35;6.22;;;;;;;15.47;72.13;98987.75;5068021;28;20530;-84
2022/11/02 11:40:34;;;;;;;10.60;6.38;;;;;;;15.54;71.44;98990.84;5064610;28;20028;-88
2022/11/02 11:43:03;;;;;;;9.68;6.35;;;;;;;15.58;71.25;98977.22;5069280;28;20417;-87